Terminal Aerodrome Forecast
Issued by NWS

Home | Current Version | Previous Version | Text Only | Print | Product List | Glossary On
Versions: 1 2 3 4 5 6 7 8 9 10 11 12 13 14 15 16 17 18 19 20
000
FTUS46 KSTO 272300 RRA
TAFSCK
TAF
KSCK 272341Z 2800/2824 VRB05KT P6SM BKN150
     FM280600 VRB04KT 5SM BR SCT150
     FM281000 32003KT 2SM BR SKC
      TEMPO 2814/2818 1/2SM FG OVC002
     FM281900 31006KT 6SM HZ FEW200=

USA.gov is the U.S. government's official web portal to all federal, state and local government web resources and services.